createdAt,value
2023-12-17T00:00:42.542Z,100220.72
2023-12-17T00:01:46.457Z,100219.81
2023-12-17T00:03:16.485Z,100213.75
2023-12-17T00:04:12.251Z,100208.63
2023-12-17T00:05:16.679Z,100218.06
2023-12-17T00:06:20.832Z,100212.03
2023-12-17T00:07:23.375Z,100205.13
2023-12-17T00:08:27.221Z,100195.63
2023-12-17T00:09:32.926Z,100190.38
2023-12-17T00:10:36.620Z,100189.53
2023-12-17T00:11:42.285Z,100196.41
2023-12-17T00:12:45.931Z,100194.72
2023-12-17T00:13:48.662Z,100197.25
2023-12-17T00:14:51.213Z,100203.25
2023-12-17T00:15:54.682Z,100203.25
2023-12-17T00:16:57.601Z,100201.50
2023-12-17T00:18:01.387Z,100198.03
2023-12-17T00:19:06.949Z,100196.31
2023-12-17T00:20:11.261Z,100197.97
2023-12-17T00:21:15.247Z,100191.91
2023-12-17T00:22:19.525Z,100191.00
2023-12-17T00:23:22.193Z,100186.75
2023-12-17T00:24:27.055Z,100185.84
2023-12-17T00:25:29.368Z,100178.06
2023-12-17T00:26:33.133Z,100182.38
2023-12-17T00:27:36.035Z,100178.03
2023-12-17T00:28:39.422Z,100175.44
2023-12-17T00:29:42.165Z,100178.88
2023-12-17T00:30:46.164Z,100183.16
2023-12-17T00:31:49.350Z,100185.75
2023-12-17T00:32:53.373Z,100187.41
2023-12-17T00:33:57.288Z,100188.31
2023-12-17T00:35:00.398Z,100188.25
2023-12-17T00:36:03.149Z,100187.34
2023-12-17T00:37:08.378Z,100196.00
2023-12-17T00:38:11.163Z,100186.50
2023-12-17T00:39:14.572Z,100189.91
2023-12-17T00:40:18.305Z,100199.34
2023-12-17T00:41:21.041Z,100196.69
2023-12-17T00:42:50.068Z,100202.72
2023-12-17T00:43:52.545Z,100182.09
2023-12-17T00:44:58.934Z,100189.84
2023-12-17T00:46:01.539Z,100177.75
2023-12-17T00:47:05.492Z,100176.91
2023-12-17T00:48:08.259Z,100171.69
2023-12-17T00:49:11.817Z,100162.22
2023-12-17T00:50:14.556Z,100161.31
2023-12-17T00:51:18.025Z,100155.31
2023-12-17T00:52:23.271Z,100157.00
2023-12-17T00:53:25.856Z,100163.91
2023-12-17T00:54:29.540Z,100164.75
2023-12-17T00:55:32.451Z,100164.72
2023-12-17T00:56:36.388Z,100155.22
2023-12-17T00:57:39.246Z,100155.22
2023-12-17T00:58:44.429Z,100167.31
2023-12-17T00:59:50.161Z,100165.50
2023-12-17T01:00:55.917Z,100159.56
2023-12-17T01:01:59.038Z,100165.56
2023-12-17T01:03:02.750Z,100155.22
2023-12-17T01:04:05.626Z,100168.09
2023-12-17T01:05:09.949Z,100169.78
2023-12-17T01:06:12.215Z,100165.41
2023-12-17T01:07:15.897Z,100176.59
2023-12-17T01:08:19.791Z,100170.50
2023-12-17T01:09:23.744Z,100175.69
2023-12-17T01:10:35.521Z,100173.88
2023-12-17T01:11:39.168Z,100173.88
2023-12-17T01:12:41.966Z,100178.19
2023-12-17T01:13:44.281Z,100173.78
2023-12-17T01:14:48.286Z,100180.63
2023-12-17T01:15:50.763Z,100168.53
2023-12-17T01:16:55.298Z,100171.97
2023-12-17T01:18:00.658Z,100171.94
2023-12-17T01:19:05.157Z,100161.59
2023-12-17T01:20:09.430Z,100168.44
2023-12-17T01:21:16.502Z,100171.88
2023-12-17T01:22:19.453Z,100168.38
2023-12-17T01:23:29.047Z,100165.78
2023-12-17T01:24:31.464Z,100165.78
2023-12-17T01:25:41.271Z,100165.72
2023-12-17T01:26:44.807Z,100167.47
2023-12-17T01:27:47.141Z,100165.72
2023-12-17T01:28:50.733Z,100170.03
2023-12-17T01:29:55.152Z,100172.59
2023-12-17T01:30:59.173Z,100176.88
2023-12-17T01:32:01.977Z,100182.06
2023-12-17T01:33:05.439Z,100179.47
2023-12-17T01:34:09.444Z,100180.31
2023-12-17T01:35:22.009Z,100175.13
2023-12-17T01:36:29.424Z,100179.47
2023-12-17T01:37:33.629Z,100172.53
2023-12-17T01:38:37.892Z,100169.13
2023-12-17T01:39:42.069Z,100175.97
2023-12-17T01:40:44.992Z,100181.97
2023-12-17T01:41:48.925Z,100173.31
2023-12-17T01:42:52.814Z,100176.75
2023-12-17T01:43:56.243Z,100169.88
2023-12-17T01:44:59.440Z,100173.31
2023-12-17T01:46:03.638Z,100167.25
2023-12-17T01:47:06.495Z,100175.88
2023-12-17T01:48:13.407Z,100178.44
2023-12-17T01:49:15.970Z,100166.34
2023-12-17T01:50:20.075Z,100173.28
2023-12-17T01:51:23.454Z,100168.09
2023-12-17T01:52:27.105Z,100167.19
2023-12-17T01:53:29.638Z,100180.13
2023-12-17T01:54:33.794Z,100172.38
2023-12-17T01:55:37.634Z,100174.06
2023-12-17T01:56:39.936Z,100174.13
2023-12-17T01:57:43.411Z,100162.03
2023-12-17T01:58:46.145Z,100168.88
2023-12-17T01:59:50.316Z,100166.28
2023-12-17T02:00:53.105Z,100174.06
2023-12-17T02:01:56.511Z,100173.16
2023-12-17T02:02:59.658Z,100174.81
2023-12-17T02:04:02.532Z,100170.56
2023-12-17T02:05:07.705Z,100170.56
2023-12-17T02:06:10.779Z,100175.75
2023-12-17T02:07:14.320Z,100170.56
2023-12-17T02:08:16.816Z,100175.75
2023-12-17T02:09:19.843Z,100176.56
2023-12-17T02:10:25.189Z,100172.25
2023-12-17T02:11:28.153Z,100180.88
2023-12-17T02:12:31.586Z,100185.16
2023-12-17T02:13:34.508Z,100187.66
2023-12-17T02:14:38.083Z,100185.97
2023-12-17T02:15:43.294Z,100186.81
2023-12-17T02:16:46.560Z,100184.31
2023-12-17T02:17:49.164Z,100187.72
2023-12-17T02:18:52.593Z,100185.97
2023-12-17T02:19:55.271Z,100182.50
2023-12-17T02:20:59.812Z,100179.06
2023-12-17T02:22:02.733Z,100176.53
2023-12-17T02:23:08.801Z,100176.53
2023-12-17T02:24:12.738Z,100168.78
2023-12-17T02:25:16.210Z,100173.94
2023-12-17T02:26:19.030Z,100161.00
2023-12-17T02:29:07.303Z,100174.00
2023-12-17T02:30:10.974Z,100172.25
2023-12-17T02:31:26.021Z,100172.25
2023-12-17T02:32:28.838Z,100161.88
2023-12-17T02:33:32.786Z,100173.94
2023-12-17T02:34:35.732Z,100160.94
2023-12-17T02:35:39.425Z,100160.19
2023-12-17T02:36:43.909Z,100163.59
2023-12-17T02:37:47.418Z,100149.81
2023-12-17T02:38:51.556Z,100162.63
2023-12-17T02:39:55.084Z,100162.69
2023-12-17T02:40:57.409Z,100168.78
2023-12-17T02:41:59.961Z,100172.97
2023-12-17T02:43:06.464Z,100166.97
2023-12-17T02:44:08.980Z,100172.97
2023-12-17T02:45:12.776Z,100164.38
2023-12-17T02:46:16.058Z,100164.38
2023-12-17T02:47:20.236Z,100159.13
2023-12-17T02:48:22.954Z,100167.81
2023-12-17T02:49:27.088Z,100165.22
2023-12-17T02:50:29.985Z,100166.13
2023-12-17T02:51:33.526Z,100160.22
2023-12-17T02:52:35.887Z,100159.38
2023-12-17T02:53:39.700Z,100164.59
2023-12-17T02:54:43.657Z,100163.78
2023-12-17T02:55:47.334Z,100163.81
2023-12-17T02:56:49.944Z,100164.78
2023-12-17T02:57:53.374Z,100150.25
2023-12-17T02:58:55.593Z,100155.59
2023-12-17T02:59:58.996Z,100155.72
2023-12-17T03:01:01.266Z,100158.41
2023-12-17T03:02:04.754Z,100149.91
2023-12-17T03:03:07.273Z,100156.13
2023-12-17T03:04:11.154Z,100159.72
2023-12-17T03:05:16.556Z,100158.97
2023-12-17T03:06:21.471Z,100152.22
2023-12-17T03:07:26.977Z,100148.06
2023-12-17T03:08:30.240Z,100149.91
2023-12-17T03:09:32.434Z,100149.16
2023-12-17T03:10:39.606Z,100157.06
2023-12-17T03:11:42.141Z,100164.13
2023-12-17T03:12:45.334Z,100149.53
2023-12-17T03:13:47.756Z,100151.34
2023-12-17T03:14:51.529Z,100160.03
2023-12-17T03:15:54.037Z,100155.84
2023-12-17T03:16:57.476Z,100154.19
2023-12-17T03:18:01.198Z,100154.31
2023-12-17T03:19:03.741Z,100152.66
2023-12-17T03:20:09.344Z,100154.50
2023-12-17T03:21:13.787Z,100145.97
2023-12-17T03:22:19.922Z,100143.44
2023-12-17T03:23:22.405Z,100146.06
2023-12-17T03:24:26.222Z,100147.03
2023-12-17T03:25:28.462Z,100144.53
2023-12-17T03:26:32.933Z,100149.81
2023-12-17T03:27:35.337Z,100157.56
2023-12-17T03:28:39.018Z,100158.50
2023-12-17T03:29:41.339Z,100157.66
2023-12-17T03:30:43.924Z,100150.03
2023-12-17T03:31:47.068Z,100147.44
2023-12-17T03:32:49.914Z,100147.44
2023-12-17T03:33:53.566Z,100147.44
2023-12-17T03:34:55.843Z,100132.81
2023-12-17T03:35:59.361Z,100149.22
2023-12-17T03:37:01.516Z,100139.00
2023-12-17T03:38:05.467Z,100134.72
2023-12-17T03:39:09.193Z,100139.03
2023-12-17T03:40:14.680Z,100129.59
2023-12-17T03:41:23.641Z,100129.72
2023-12-17T03:42:28.578Z,100123.69
2023-12-17T03:43:31.313Z,100122.84
2023-12-17T03:44:34.869Z,100128.00
2023-12-17T03:45:37.339Z,100126.31
2023-12-17T03:46:40.554Z,100125.53
2023-12-17T03:47:46.271Z,100120.38
2023-12-17T03:48:50.113Z,100125.56
2023-12-17T03:49:52.726Z,100120.47
2023-12-17T03:50:55.951Z,100123.06
2023-12-17T03:51:58.177Z,100117.03
2023-12-17T03:53:00.647Z,100124.84
2023-12-17T03:54:04.072Z,100122.28
2023-12-17T03:55:07.068Z,100111.94
2023-12-17T03:56:11.283Z,100113.63
2023-12-17T03:57:13.407Z,100116.19
2023-12-17T03:58:18.209Z,100112.84
2023-12-17T03:59:20.645Z,100120.59
2023-12-17T04:00:25.717Z,100121.47
2023-12-17T04:01:28.039Z,100118.09
2023-12-17T04:02:32.283Z,100117.31
2023-12-17T04:03:35.703Z,100112.19
2023-12-17T04:04:39.122Z,100114.81
2023-12-17T04:05:41.787Z,100116.56
2023-12-17T04:06:47.737Z,100120.03
2023-12-17T04:07:50.196Z,100108.91
2023-12-17T04:08:55.744Z,100126.00
2023-12-17T04:09:59.582Z,100133.78
2023-12-17T04:11:03.691Z,100132.13
2023-12-17T04:12:07.082Z,100133.88
2023-12-17T04:13:09.867Z,100129.63
2023-12-17T04:14:14.777Z,100126.25
2023-12-17T04:15:17.211Z,100131.41
2023-12-17T04:16:19.800Z,100131.44
2023-12-17T04:17:23.528Z,100125.50
2023-12-17T04:18:26.255Z,100126.41
2023-12-17T04:19:29.620Z,100129.00
2023-12-17T04:20:32.151Z,100128.22
2023-12-17T04:21:36.118Z,100126.44
2023-12-17T04:22:38.815Z,100125.63
2023-12-17T04:23:42.588Z,100129.97
2023-12-17T04:24:45.030Z,100135.13
2023-12-17T04:25:48.809Z,100134.28
2023-12-17T04:26:51.786Z,100127.44
2023-12-17T04:27:55.464Z,100132.59
2023-12-17T04:28:59.026Z,100127.44
2023-12-17T04:30:04.012Z,100130.03
2023-12-17T04:31:07.028Z,100130.03
2023-12-17T04:32:10.970Z,100130.94
2023-12-17T04:33:14.130Z,100129.31
2023-12-17T04:34:18.028Z,100131.91
2023-12-17T04:35:21.018Z,100136.25
2023-12-17T04:36:24.780Z,100136.25
2023-12-17T04:37:27.480Z,100138.88
2023-12-17T04:38:30.941Z,100124.38
2023-12-17T04:39:33.401Z,100135.56
2023-12-17T04:40:36.894Z,100126.97
2023-12-17T04:41:39.809Z,100134.66
2023-12-17T04:42:43.046Z,100137.22
2023-12-17T04:43:45.431Z,100126.81
2023-12-17T04:44:49.135Z,100131.16
2023-12-17T04:45:52.616Z,100127.72
2023-12-17T04:46:57.514Z,100132.94
2023-12-17T04:48:01.970Z,100129.50
2023-12-17T04:49:05.789Z,100123.53
2023-12-17T04:50:09.303Z,100127.81
2023-12-17T04:51:12.762Z,100139.88
2023-12-17T04:52:15.029Z,100141.59
2023-12-17T04:53:21.880Z,100142.44
2023-12-17T04:54:25.279Z,100144.97
2023-12-17T04:55:29.008Z,100139.81
2023-12-17T04:56:31.713Z,100141.56
2023-12-17T04:57:35.281Z,100140.72
2023-12-17T04:58:37.461Z,100136.44
2023-12-17T04:59:42.833Z,100124.38
2023-12-17T05:00:45.394Z,100138.97
2023-12-17T05:01:50.472Z,100137.28
2023-12-17T05:02:53.243Z,100132.97
2023-12-17T05:03:57.239Z,100136.50
2023-12-17T05:04:59.989Z,100138.25
2023-12-17T05:06:04.499Z,100128.00
2023-12-17T05:07:07.901Z,100131.47
2023-12-17T05:08:11.017Z,100131.47
2023-12-17T05:09:15.316Z,100117.75
2023-12-17T05:10:21.515Z,100127.34
2023-12-17T05:11:25.472Z,100127.44
2023-12-17T05:12:43.596Z,100124.16
2023-12-17T05:13:48.724Z,100129.38
2023-12-17T05:14:52.375Z,100132.03
2023-12-17T05:15:56.051Z,100118.34
2023-12-17T05:17:00.102Z,100121.00
2023-12-17T05:18:04.181Z,100126.28
2023-12-17T05:19:07.322Z,100130.59
2023-12-17T05:20:11.624Z,100135.78
2023-12-17T05:21:14.468Z,100128.94
2023-12-17T05:22:19.123Z,100120.41
2023-12-17T05:23:21.616Z,100130.72
2023-12-17T05:24:24.058Z,100130.72
2023-12-17T05:25:27.740Z,100133.31
2023-12-17T05:26:30.391Z,100123.00
2023-12-17T05:27:32.933Z,100126.47
2023-12-17T05:28:38.831Z,100131.66
2023-12-17T05:29:42.020Z,100129.13
2023-12-17T05:30:48.144Z,100122.28
2023-12-17T05:31:51.432Z,100122.34
2023-12-17T05:32:57.164Z,100124.94
2023-12-17T05:33:59.925Z,100115.59
2023-12-17T05:35:06.865Z,100113.91
2023-12-17T05:36:10.266Z,100118.22
2023-12-17T05:37:14.524Z,100119.97
2023-12-17T05:38:19.801Z,100119.91
2023-12-17T05:39:23.687Z,100118.16
2023-12-17T05:40:26.239Z,100113.84
2023-12-17T05:41:29.708Z,100123.25
2023-12-17T05:42:32.949Z,100113.78
2023-12-17T05:43:37.813Z,100112.94
2023-12-17T05:44:40.710Z,100109.47
2023-12-17T05:45:50.953Z,100112.88
2023-12-17T05:47:00.747Z,100111.19
2023-12-17T05:48:06.161Z,100112.03
2023-12-17T05:49:08.785Z,100107.78
2023-12-17T05:50:12.562Z,100122.34
2023-12-17T05:51:15.696Z,100124.03
2023-12-17T05:52:19.414Z,100119.72
2023-12-17T05:53:27.568Z,100132.63
2023-12-17T05:54:36.787Z,100124.03
2023-12-17T05:55:39.231Z,100124.03
2023-12-17T05:56:43.499Z,100120.63
2023-12-17T05:57:47.723Z,100119.72
2023-12-17T05:58:51.004Z,100126.59
2023-12-17T05:59:53.800Z,100124.84
2023-12-17T06:00:57.700Z,100121.38
2023-12-17T06:02:00.516Z,100123.13
2023-12-17T06:03:05.170Z,100133.44
2023-12-17T06:04:07.815Z,100128.34
2023-12-17T06:05:11.602Z,100128.34
2023-12-17T06:06:14.141Z,100125.78
2023-12-17T06:07:18.430Z,100125.84
2023-12-17T06:08:20.541Z,100130.16
2023-12-17T06:09:24.263Z,100121.56
2023-12-17T06:10:26.426Z,100127.50
2023-12-17T06:11:29.535Z,100113.72
2023-12-17T06:12:31.939Z,100115.44
2023-12-17T06:13:36.001Z,100121.44
2023-12-17T06:14:38.199Z,100122.28
2023-12-17T06:15:41.456Z,100119.66
2023-12-17T06:16:43.617Z,100125.59
2023-12-17T06:17:47.349Z,100130.72
2023-12-17T06:18:51.428Z,100135.78
2023-12-17T06:19:57.146Z,100134.00
2023-12-17T06:21:01.604Z,100128.00
2023-12-17T06:22:04.905Z,100119.44
2023-12-17T06:23:07.334Z,100120.28
2023-12-17T06:24:10.474Z,100121.13
2023-12-17T06:25:12.688Z,100118.56
2023-12-17T06:26:16.630Z,100122.00
2023-12-17T06:27:19.374Z,100127.97
2023-12-17T06:28:22.201Z,100118.47
2023-12-17T06:29:25.519Z,100121.91
2023-12-17T06:30:27.926Z,100129.56
2023-12-17T06:31:31.172Z,100121.78
2023-12-17T06:32:33.600Z,100137.19
2023-12-17T06:33:37.148Z,100132.03
2023-12-17T06:34:40.731Z,100135.44
2023-12-17T06:35:44.239Z,100133.75
2023-12-17T06:36:46.369Z,100135.44
2023-12-17T06:37:49.471Z,100134.59
2023-12-17T06:38:51.725Z,100134.59
2023-12-17T06:39:54.891Z,100134.66
2023-12-17T06:40:57.123Z,100132.16
2023-12-17T06:42:00.327Z,100136.47
2023-12-17T06:43:02.529Z,100139.91
2023-12-17T06:44:05.895Z,100141.66
2023-12-17T06:45:11.272Z,100136.47
2023-12-17T06:46:18.090Z,100146.78
2023-12-17T06:47:26.361Z,100139.88
2023-12-17T06:48:31.985Z,100147.50
2023-12-17T06:49:34.389Z,100151.75
2023-12-17T06:50:38.948Z,100145.63
2023-12-17T06:51:41.477Z,100142.97
2023-12-17T06:52:44.748Z,100147.16
2023-12-17T06:53:47.975Z,100147.06
2023-12-17T06:54:51.923Z,100152.06
2023-12-17T06:55:54.029Z,100155.41
2023-12-17T06:56:57.196Z,100153.53
2023-12-17T06:57:59.440Z,100162.91
2023-12-17T06:59:03.188Z,100166.19
2023-12-17T07:00:07.588Z,100159.28
2023-12-17T07:01:11.721Z,100166.06
2023-12-17T07:02:13.885Z,100159.06
2023-12-17T07:03:19.567Z,100158.97
2023-12-17T07:04:21.964Z,100167.50
2023-12-17T07:05:25.138Z,100157.94
2023-12-17T07:06:29.118Z,100169.88
2023-12-17T07:07:32.441Z,100170.66
2023-12-17T07:08:34.756Z,100170.59
2023-12-17T07:09:37.912Z,100179.13
2023-12-17T07:10:40.166Z,100178.25
2023-12-17T07:11:43.327Z,100171.34
2023-12-17T07:12:45.444Z,100167.03
2023-12-17T07:13:50.332Z,100167.84
2023-12-17T07:14:52.744Z,100174.72
2023-12-17T07:15:55.836Z,100172.13
2023-12-17T07:16:59.712Z,100177.28
2023-12-17T07:18:03.295Z,100179.88
2023-12-17T07:19:05.621Z,100175.59
2023-12-17T07:20:10.043Z,100189.41
2023-12-17T07:21:12.178Z,100176.53
2023-12-17T07:22:17.931Z,100182.59
2023-12-17T07:23:23.305Z,100176.66
2023-12-17T07:24:27.443Z,100179.22
2023-12-17T07:25:29.609Z,100184.41
2023-12-17T07:26:32.674Z,100178.41
2023-12-17T07:27:34.708Z,100174.13
2023-12-17T07:28:38.622Z,100175.81
2023-12-17T07:29:40.752Z,100171.53
2023-12-17T07:30:44.013Z,100169.84
2023-12-17T07:31:46.192Z,100168.06
2023-12-17T07:32:49.472Z,100168.91
2023-12-17T07:33:51.932Z,100166.31
2023-12-17T07:34:54.297Z,100173.13
2023-12-17T07:35:57.655Z,100174.84
2023-12-17T07:37:00.835Z,100175.69
2023-12-17T07:38:05.357Z,100173.09
2023-12-17T07:39:07.771Z,100180.00
2023-12-17T07:40:11.577Z,100183.34
2023-12-17T07:41:14.001Z,100176.44
2023-12-17T07:42:17.190Z,100187.56
2023-12-17T07:43:19.337Z,100190.13
2023-12-17T07:44:22.440Z,100183.16
2023-12-17T07:45:24.614Z,100189.91
2023-12-17T07:46:27.749Z,100194.13
2023-12-17T07:47:31.833Z,100195.72
2023-12-17T07:48:35.676Z,100193.94
2023-12-17T07:49:38.040Z,100192.94
2023-12-17T07:50:42.127Z,100198.06
2023-12-17T07:51:45.583Z,100202.22
2023-12-17T07:52:48.706Z,100205.56
2023-12-17T07:53:52.276Z,100196.81
2023-12-17T07:54:55.844Z,100196.66
2023-12-17T07:55:58.932Z,100195.59
2023-12-17T07:57:02.158Z,100188.53
2023-12-17T07:58:04.384Z,100176.31
2023-12-17T07:59:07.487Z,100179.50
2023-12-17T08:00:13.029Z,100176.72
2023-12-17T08:01:19.774Z,100170.53
2023-12-17T08:02:22.844Z,100167.78
2023-12-17T08:03:26.274Z,100170.22
2023-12-17T08:04:28.697Z,100173.50
2023-12-17T08:05:31.983Z,100174.22
2023-12-17T08:06:37.043Z,100178.38
2023-12-17T08:07:42.976Z,100177.38
2023-12-17T08:08:45.330Z,100170.34
2023-12-17T08:09:50.007Z,100180.56
2023-12-17T08:10:52.137Z,100176.13
2023-12-17T08:11:55.620Z,100178.63
2023-12-17T08:12:57.773Z,100181.91
2023-12-17T08:14:00.899Z,100178.44
2023-12-17T08:15:03.362Z,100180.06
2023-12-17T08:16:07.526Z,100183.47
2023-12-17T08:17:09.975Z,100186.06
2023-12-17T08:18:13.444Z,100180.81
2023-12-17T08:19:15.629Z,100182.50
2023-12-17T08:20:20.030Z,100176.41
2023-12-17T08:21:22.552Z,100187.56
2023-12-17T08:22:26.002Z,100185.75
2023-12-17T08:23:28.309Z,100183.06
2023-12-17T08:24:31.392Z,100184.69
2023-12-17T08:25:39.432Z,100182.03
2023-12-17T08:26:42.925Z,100188.91
2023-12-17T08:27:45.009Z,100187.88
2023-12-17T08:28:48.253Z,100198.97
2023-12-17T08:29:52.079Z,100188.50
2023-12-17T08:30:55.517Z,100182.41
2023-12-17T08:31:58.850Z,100192.69
2023-12-17T08:33:01.027Z,100190.84
2023-12-17T08:34:04.534Z,100192.47
2023-12-17T08:35:07.771Z,100196.69
2023-12-17T08:36:12.242Z,100193.13
2023-12-17T08:37:14.462Z,100191.34
2023-12-17T08:38:17.543Z,100200.72
2023-12-17T08:39:22.145Z,100187.75
2023-12-17T08:40:25.273Z,100191.09
2023-12-17T08:41:32.305Z,100198.88
2023-12-17T08:42:35.450Z,100187.59
2023-12-17T08:43:37.469Z,100197.97
2023-12-17T08:44:39.527Z,100189.28
2023-12-17T08:45:42.608Z,100198.78
2023-12-17T08:46:44.776Z,100203.03
2023-12-17T08:47:48.073Z,100199.53
2023-12-17T08:48:50.387Z,100201.22
2023-12-17T08:49:54.594Z,100198.63
2023-12-17T08:50:57.016Z,100202.91
2023-12-17T08:52:00.167Z,100197.72
2023-12-17T08:53:03.054Z,100201.13
2023-12-17T08:54:06.424Z,100207.13
2023-12-17T08:55:10.416Z,100199.28
2023-12-17T08:56:13.675Z,100198.34
2023-12-17T08:57:17.233Z,100200.72
2023-12-17T08:58:20.418Z,100207.38
2023-12-17T08:59:22.948Z,100200.25
2023-12-17T09:00:26.730Z,100199.25
2023-12-17T09:01:28.848Z,100205.13
2023-12-17T09:02:30.948Z,100203.19
2023-12-17T09:03:34.246Z,100203.00
2023-12-17T09:04:36.459Z,100199.28
2023-12-17T09:05:39.927Z,100200.69
2023-12-17T09:06:43.814Z,100200.38
2023-12-17T09:07:46.898Z,100197.63
2023-12-17T09:08:49.020Z,100204.38
2023-12-17T09:09:52.108Z,100203.34
2023-12-17T09:10:54.334Z,100205.66
2023-12-17T09:11:57.404Z,100209.00
2023-12-17T09:13:00.899Z,100210.22
2023-12-17T09:14:04.110Z,100196.78
2023-12-17T09:15:07.099Z,100205.84
2023-12-17T09:16:09.359Z,100199.41
2023-12-17T09:17:12.531Z,100199.06
2023-12-17T09:18:14.940Z,100196.97
2023-12-17T09:19:18.515Z,100179.47
2023-12-17T09:20:20.957Z,100188.91
2023-12-17T09:21:23.070Z,100190.66
2023-12-17T09:22:27.156Z,100189.81
2023-12-17T09:23:29.268Z,100185.38
2023-12-17T09:24:32.625Z,100191.41
2023-12-17T09:25:34.784Z,100178.44
2023-12-17T09:26:38.252Z,100181.00
2023-12-17T09:27:40.950Z,100183.50
2023-12-17T09:28:45.851Z,100175.63
2023-12-17T09:29:48.093Z,100182.59
2023-12-17T09:30:51.353Z,100171.50
2023-12-17T09:31:53.581Z,100171.50
2023-12-17T09:32:56.761Z,100174.88
2023-12-17T09:33:59.157Z,100169.69
2023-12-17T09:35:02.418Z,100178.31
2023-12-17T09:36:05.173Z,100170.38
2023-12-17T09:37:08.318Z,100169.53
2023-12-17T09:38:12.681Z,100173.97
2023-12-17T09:39:16.347Z,100172.28
2023-12-17T09:40:19.236Z,100175.91
2023-12-17T09:41:21.535Z,100177.69
2023-12-17T09:42:25.777Z,100178.59
2023-12-17T09:43:27.907Z,100172.63
2023-12-17T09:44:32.448Z,100179.66
2023-12-17T09:45:34.661Z,100178.00
2023-12-17T09:46:37.067Z,100179.78
2023-12-17T09:47:40.844Z,100178.94
2023-12-17T09:48:44.983Z,100183.19
2023-12-17T09:49:49.840Z,100185.75
2023-12-17T09:50:52.015Z,100179.56
2023-12-17T09:52:02.828Z,100174.28
2023-12-17T09:53:04.890Z,100179.47
2023-12-17T09:54:07.979Z,100171.56
2023-12-17T09:55:11.516Z,100181.03
2023-12-17T09:56:14.899Z,100179.22
2023-12-17T09:57:18.329Z,100184.44
2023-12-17T09:58:21.508Z,100188.69
2023-12-17T09:59:24.284Z,100182.72
2023-12-17T10:00:27.874Z,100182.72
2023-12-17T10:01:31.333Z,100183.50
2023-12-17T10:02:39.053Z,100174.81
2023-12-17T10:03:43.325Z,100182.50
2023-12-17T10:04:45.489Z,100177.28
2023-12-17T10:05:52.967Z,100176.34
2023-12-17T10:06:55.271Z,100184.97
2023-12-17T10:07:57.395Z,100182.25
2023-12-17T10:09:00.460Z,100176.97
2023-12-17T10:10:02.519Z,100179.50
2023-12-17T10:11:06.312Z,100175.97
2023-12-17T10:12:09.214Z,100180.28
2023-12-17T10:13:13.633Z,100183.72
2023-12-17T10:14:22.805Z,100174.19
2023-12-17T10:15:26.054Z,100178.44
2023-12-17T10:16:29.691Z,100171.50
2023-12-17T10:17:32.984Z,100178.25
2023-12-17T10:18:35.645Z,100170.25
2023-12-17T10:19:38.866Z,100166.50
2023-12-17T10:20:41.050Z,100164.59
2023-12-17T10:21:43.207Z,100166.09
2023-12-17T10:22:59.338Z,100169.31
2023-12-17T10:24:01.476Z,100171.75
2023-12-17T10:25:05.388Z,100159.28
2023-12-17T10:26:07.497Z,100160.78
2023-12-17T10:27:17.951Z,100165.59
2023-12-17T10:28:20.318Z,100159.25
2023-12-17T10:29:23.689Z,100156.34
2023-12-17T10:30:30.182Z,100154.22
2023-12-17T10:31:35.230Z,100150.47
2023-12-17T10:32:37.351Z,100157.13
2023-12-17T10:33:51.305Z,100157.72
2023-12-17T10:34:54.774Z,100153.22
2023-12-17T10:35:58.452Z,100152.22
2023-12-17T10:37:02.202Z,100143.44
2023-12-17T10:38:07.006Z,100143.34
2023-12-17T10:39:10.070Z,100144.78
2023-12-17T10:40:13.692Z,100131.63
2023-12-17T10:41:16.799Z,100145.38
2023-12-17T10:42:21.246Z,100147.91
2023-12-17T10:43:23.776Z,100140.09
2023-12-17T10:44:27.154Z,100142.66
2023-12-17T10:45:30.413Z,100143.47
2023-12-17T10:46:36.490Z,100142.56
2023-12-17T10:47:40.382Z,100147.84
2023-12-17T10:48:48.458Z,100148.00
2023-12-17T10:49:52.776Z,100151.59
2023-12-17T10:50:57.298Z,100150.81
2023-12-17T10:52:00.718Z,100141.34
2023-12-17T10:53:03.912Z,100145.81
2023-12-17T10:54:06.603Z,100147.53
2023-12-17T10:55:09.005Z,100151.16
2023-12-17T10:56:13.039Z,100146.09
2023-12-17T10:57:18.191Z,100145.34
2023-12-17T10:58:23.217Z,100145.47
2023-12-17T10:59:35.374Z,100142.88
2023-12-17T11:03:50.379Z,100140.81
2023-12-17T11:04:52.801Z,100130.50
2023-12-17T11:05:57.472Z,100135.78
2023-12-17T11:07:00.123Z,100118.56
2023-12-17T11:08:03.932Z,100130.81
2023-12-17T11:09:06.493Z,100124.69
2023-12-17T11:10:11.744Z,100130.59
2023-12-17T11:11:15.141Z,100133.94
2023-12-17T11:12:18.180Z,100126.06
2023-12-17T11:13:23.923Z,100126.97
2023-12-17T11:14:27.239Z,100127.91
2023-12-17T11:15:29.473Z,100121.84
2023-12-17T11:16:32.708Z,100122.69
2023-12-17T11:17:35.107Z,100113.91
2023-12-17T11:18:44.852Z,100112.16
2023-12-17T11:19:58.655Z,100120.84
2023-12-17T11:21:01.855Z,100119.16
2023-12-17T11:22:04.031Z,100121.78
2023-12-17T11:23:07.313Z,100119.16
2023-12-17T11:24:09.872Z,100117.41
2023-12-17T11:25:14.179Z,100122.59
2023-12-17T11:26:16.850Z,100123.63
2023-12-17T11:27:21.027Z,100124.53
2023-12-17T11:28:27.417Z,100127.19
2023-12-17T11:29:33.730Z,100131.75
2023-12-17T11:30:39.457Z,100141.31
2023-12-17T11:31:41.917Z,100143.94
2023-12-17T11:32:45.536Z,100142.28
2023-12-17T11:33:48.467Z,100150.06
2023-12-17T11:34:52.332Z,100145.72
2023-12-17T11:35:56.392Z,100154.28
2023-12-17T11:37:00.339Z,100149.16
2023-12-17T11:38:04.393Z,100144.13
2023-12-17T11:39:10.079Z,100137.16
2023-12-17T11:40:12.352Z,100150.06
2023-12-17T11:41:15.687Z,100137.06
2023-12-17T11:42:19.110Z,100127.69
2023-12-17T11:43:24.627Z,100128.56
2023-12-17T11:44:26.775Z,100122.63
2023-12-17T11:45:36.553Z,100130.50
2023-12-17T11:46:38.739Z,100128.81
2023-12-17T11:47:42.013Z,100125.31
2023-12-17T11:48:44.324Z,100125.13
2023-12-17T11:49:47.819Z,100127.69
2023-12-17T11:50:52.187Z,100133.56
2023-12-17T11:51:57.261Z,100116.19
2023-12-17T11:53:02.827Z,100129.13
2023-12-17T11:54:06.461Z,100121.34
2023-12-17T11:55:08.892Z,100121.16
2023-12-17T11:56:13.142Z,100115.97
2023-12-17T11:57:19.886Z,100113.38
2023-12-17T11:58:24.763Z,100115.03
2023-12-17T11:59:33.365Z,100115.97
2023-12-17T12:00:36.959Z,100114.28
2023-12-17T12:01:39.431Z,100113.38
2023-12-17T12:02:41.663Z,100116.06
2023-12-17T12:03:45.318Z,100102.22
2023-12-17T12:04:48.112Z,100110.75
2023-12-17T12:05:51.737Z,100107.25
2023-12-17T12:06:55.676Z,100105.50
2023-12-17T12:07:58.969Z,100098.53
2023-12-17T12:09:01.381Z,100109.78
2023-12-17T12:10:12.028Z,100108.16
2023-12-17T12:11:16.570Z,100103.88
2023-12-17T12:12:21.221Z,100102.22
2023-12-17T12:13:25.078Z,100094.50